sensor_id;sensor_type;location;lat;lon;timestamp;P1;durP1;ratioP1;P2;durP2;ratioP2
8413;SDS011;4244;48.684;9.028;2023-04-30T00:01:42;8.00;;;6.37;;
8413;SDS011;4244;48.684;9.028;2023-04-30T00:04:08;8.13;;;7.43;;
8413;SDS011;4244;48.684;9.028;2023-04-30T00:06:33;7.53;;;6.83;;
8413;SDS011;4244;48.684;9.028;2023-04-30T00:08:59;7.60;;;6.70;;
8413;SDS011;4244;48.684;9.028;2023-04-30T00:11:25;7.20;;;6.50;;
8413;SDS011;4244;48.684;9.028;2023-04-30T00:13:50;7.80;;;7.10;;
8413;SDS011;4244;48.684;9.028;2023-04-30T00:16:17;7.77;;;7.07;;
8413;SDS011;4244;48.684;9.028;2023-04-30T00:18:42;7.70;;;6.90;;
8413;SDS011;4244;48.684;9.028;2023-04-30T00:21:08;6.87;;;6.27;;
8413;SDS011;4244;48.684;9.028;2023-04-30T00:23:34;7.00;;;6.30;;
8413;SDS011;4244;48.684;9.028;2023-04-30T00:26:00;7.00;;;6.30;;
8413;SDS011;4244;48.684;9.028;2023-04-30T00:28:26;7.13;;;6.43;;
8413;SDS011;4244;48.684;9.028;2023-04-30T00:30:52;9.70;;;7.67;;
8413;SDS011;4244;48.684;9.028;2023-04-30T00:33:18;7.50;;;6.80;;
8413;SDS011;4244;48.684;9.028;2023-04-30T00:35:43;7.70;;;6.77;;
8413;SDS011;4244;48.684;9.028;2023-04-30T00:38:09;8.33;;;7.53;;
8413;SDS011;4244;48.684;9.028;2023-04-30T00:40:35;8.50;;;6.83;;
8413;SDS011;4244;48.684;9.028;2023-04-30T00:43:01;8.20;;;7.40;;
8413;SDS011;4244;48.684;9.028;2023-04-30T00:45:27;8.10;;;7.27;;
8413;SDS011;4244;48.684;9.028;2023-04-30T00:47:52;8.30;;;7.60;;
8413;SDS011;4244;48.684;9.028;2023-04-30T00:50:18;7.70;;;6.97;;
8413;SDS011;4244;48.684;9.028;2023-04-30T00:52:44;7.80;;;6.63;;
8413;SDS011;4244;48.684;9.028;2023-04-30T00:55:10;7.70;;;6.90;;
8413;SDS011;4244;48.684;9.028;2023-04-30T00:57:37;7.77;;;6.13;;
8413;SDS011;4244;48.684;9.028;2023-04-30T01:00:06;8.10;;;7.30;;
8413;SDS011;4244;48.684;9.028;2023-04-30T01:02:38;7.97;;;7.23;;
8413;SDS011;4244;48.684;9.028;2023-04-30T01:05:04;8.10;;;7.27;;
8413;SDS011;4244;48.684;9.028;2023-04-30T01:07:30;8.40;;;7.60;;
8413;SDS011;4244;48.684;9.028;2023-04-30T01:09:56;8.43;;;7.63;;
8413;SDS011;4244;48.684;9.028;2023-04-30T01:20:02;7.87;;;7.10;;
8413;SDS011;4244;48.684;9.028;2023-04-30T01:30:39;9.57;;;8.67;;
8413;SDS011;4244;48.684;9.028;2023-04-30T01:33:08;9.57;;;8.50;;
8413;SDS011;4244;48.684;9.028;2023-04-30T01:46:33;8.83;;;7.47;;
8413;SDS011;4244;48.684;9.028;2023-04-30T01:52:07;9.67;;;8.77;;
8413;SDS011;4244;48.684;9.028;2023-04-30T01:55:23;8.43;;;7.23;;
8413;SDS011;4244;48.684;9.028;2023-04-30T01:57:42;8.40;;;7.60;;
8413;SDS011;4244;48.684;9.028;2023-04-30T02:00:11;9.57;;;8.57;;
8413;SDS011;4244;48.684;9.028;2023-04-30T02:02:39;9.07;;;8.13;;
8413;SDS011;4244;48.684;9.028;2023-04-30T02:05:04;14.10;;;8.47;;
8413;SDS011;4244;48.684;9.028;2023-04-30T02:10:06;13.00;;;8.60;;
8413;SDS011;4244;48.684;9.028;2023-04-30T02:12:32;10.20;;;8.73;;
8413;SDS011;4244;48.684;9.028;2023-04-30T02:14:58;11.97;;;9.77;;
8413;SDS011;4244;48.684;9.028;2023-04-30T02:17:24;9.60;;;8.60;;
8413;SDS011;4244;48.684;9.028;2023-04-30T02:19:50;10.37;;;9.27;;
8413;SDS011;4244;48.684;9.028;2023-04-30T02:22:15;10.50;;;9.50;;
8413;SDS011;4244;48.684;9.028;2023-04-30T02:24:41;9.27;;;8.20;;
8413;SDS011;4244;48.684;9.028;2023-04-30T02:27:07;10.00;;;9.00;;
8413;SDS011;4244;48.684;9.028;2023-04-30T02:29:32;10.90;;;9.77;;
8413;SDS011;4244;48.684;9.028;2023-04-30T02:31:58;11.50;;;10.30;;
8413;SDS011;4244;48.684;9.028;2023-04-30T02:34:25;9.20;;;8.30;;
8413;SDS011;4244;48.684;9.028;2023-04-30T02:36:51;11.73;;;10.27;;
8413;SDS011;4244;48.684;9.028;2023-04-30T02:39:16;11.07;;;9.73;;
8413;SDS011;4244;48.684;9.028;2023-04-30T02:41:42;11.87;;;10.60;;
8413;SDS011;4244;48.684;9.028;2023-04-30T02:44:08;10.07;;;9.07;;
8413;SDS011;4244;48.684;9.028;2023-04-30T02:46:33;10.83;;;9.43;;
8413;SDS011;4244;48.684;9.028;2023-04-30T02:48:59;11.10;;;9.73;;
8413;SDS011;4244;48.684;9.028;2023-04-30T02:51:25;11.73;;;10.53;;
8413;SDS011;4244;48.684;9.028;2023-04-30T02:53:50;12.13;;;10.87;;
8413;SDS011;4244;48.684;9.028;2023-04-30T02:56:16;11.57;;;10.37;;
8413;SDS011;4244;48.684;9.028;2023-04-30T02:58:42;12.23;;;10.57;;
8413;SDS011;4244;48.684;9.028;2023-04-30T03:01:07;10.60;;;9.50;;
8413;SDS011;4244;48.684;9.028;2023-04-30T03:03:33;12.97;;;11.33;;
8413;SDS011;4244;48.684;9.028;2023-04-30T03:05:59;12.20;;;10.90;;
8413;SDS011;4244;48.684;9.028;2023-04-30T03:08:25;12.23;;;10.93;;
8413;SDS011;4244;48.684;9.028;2023-04-30T03:10:50;13.40;;;12.10;;
8413;SDS011;4244;48.684;9.028;2023-04-30T03:13:16;12.77;;;11.47;;
8413;SDS011;4244;48.684;9.028;2023-04-30T03:15:42;12.17;;;10.63;;
8413;SDS011;4244;48.684;9.028;2023-04-30T03:18:08;12.80;;;11.50;;
8413;SDS011;4244;48.684;9.028;2023-04-30T03:20:34;12.87;;;10.90;;
8413;SDS011;4244;48.684;9.028;2023-04-30T03:23:00;13.80;;;11.70;;
8413;SDS011;4244;48.684;9.028;2023-04-30T03:25:26;13.07;;;11.77;;
8413;SDS011;4244;48.684;9.028;2023-04-30T03:27:52;13.97;;;11.33;;
8413;SDS011;4244;48.684;9.028;2023-04-30T03:30:17;14.10;;;12.20;;
8413;SDS011;4244;48.684;9.028;2023-04-30T03:32:43;13.47;;;12.10;;
8413;SDS011;4244;48.684;9.028;2023-04-30T03:35:09;13.40;;;12.00;;
8413;SDS011;4244;48.684;9.028;2023-04-30T03:37:35;14.57;;;13.07;;
8413;SDS011;4244;48.684;9.028;2023-04-30T03:40:01;13.73;;;12.13;;
8413;SDS011;4244;48.684;9.028;2023-04-30T03:42:27;16.40;;;13.00;;
8413;SDS011;4244;48.684;9.028;2023-04-30T03:44:52;13.67;;;11.87;;
8413;SDS011;4244;48.684;9.028;2023-04-30T03:47:18;15.37;;;11.43;;
8413;SDS011;4244;48.684;9.028;2023-04-30T03:49:44;14.97;;;13.37;;
8413;SDS011;4244;48.684;9.028;2023-04-30T03:52:09;13.17;;;11.87;;
8413;SDS011;4244;48.684;9.028;2023-04-30T03:54:35;15.50;;;13.60;;
8413;SDS011;4244;48.684;9.028;2023-04-30T03:57:01;13.47;;;12.20;;
8413;SDS011;4244;48.684;9.028;2023-04-30T03:59:29;14.90;;;12.73;;
8413;SDS011;4244;48.684;9.028;2023-04-30T04:01:58;15.13;;;13.53;;
8413;SDS011;4244;48.684;9.028;2023-04-30T04:04:25;15.17;;;13.57;;
8413;SDS011;4244;48.684;9.028;2023-04-30T04:06:51;15.27;;;12.67;;
8413;SDS011;4244;48.684;9.028;2023-04-30T04:09:16;13.30;;;11.90;;
8413;SDS011;4244;48.684;9.028;2023-04-30T04:11:42;13.40;;;12.00;;
8413;SDS011;4244;48.684;9.028;2023-04-30T04:14:08;13.57;;;12.27;;
8413;SDS011;4244;48.684;9.028;2023-04-30T04:16:33;13.93;;;12.43;;
8413;SDS011;4244;48.684;9.028;2023-04-30T04:18:59;14.70;;;12.63;;
8413;SDS011;4244;48.684;9.028;2023-04-30T04:21:25;13.87;;;11.30;;
8413;SDS011;4244;48.684;9.028;2023-04-30T04:23:50;13.87;;;12.33;;
8413;SDS011;4244;48.684;9.028;2023-04-30T04:26:16;14.03;;;12.63;;
8413;SDS011;4244;48.684;9.028;2023-04-30T04:28:43;16.17;;;12.63;;
8413;SDS011;4244;48.684;9.028;2023-04-30T04:31:10;16.20;;;12.50;;
8413;SDS011;4244;48.684;9.028;2023-04-30T04:33:35;13.67;;;12.23;;
8413;SDS011;4244;48.684;9.028;2023-04-30T04:36:01;14.23;;;12.73;;
8413;SDS011;4244;48.684;9.028;2023-04-30T04:38:27;15.30;;;12.50;;
8413;SDS011;4244;48.684;9.028;2023-04-30T04:40:54;14.73;;;13.20;;
8413;SDS011;4244;48.684;9.028;2023-04-30T04:43:20;13.33;;;12.00;;
8413;SDS011;4244;48.684;9.028;2023-04-30T04:45:46;13.83;;;12.37;;
8413;SDS011;4244;48.684;9.028;2023-04-30T04:48:12;12.70;;;11.50;;
8413;SDS011;4244;48.684;9.028;2023-04-30T04:50:38;13.73;;;12.27;;
8413;SDS011;4244;48.684;9.028;2023-04-30T04:53:05;14.90;;;13.30;;
8413;SDS011;4244;48.684;9.028;2023-04-30T04:55:30;12.87;;;11.67;;
8413;SDS011;4244;48.684;9.028;2023-04-30T04:57:56;14.27;;;12.77;;
8413;SDS011;4244;48.684;9.028;2023-04-30T05:00:22;16.33;;;13.27;;
8413;SDS011;4244;48.684;9.028;2023-04-30T05:02:48;14.70;;;13.13;;
8413;SDS011;4244;48.684;9.028;2023-04-30T05:05:14;12.80;;;11.50;;
8413;SDS011;4244;48.684;9.028;2023-04-30T05:07:39;13.30;;;11.90;;
8413;SDS011;4244;48.684;9.028;2023-04-30T05:10:05;13.20;;;11.80;;
8413;SDS011;4244;48.684;9.028;2023-04-30T05:12:32;13.07;;;11.77;;
8413;SDS011;4244;48.684;9.028;2023-04-30T05:14:57;12.20;;;11.00;;
8413;SDS011;4244;48.684;9.028;2023-04-30T05:17:23;16.70;;;12.60;;
8413;SDS011;4244;48.684;9.028;2023-04-30T05:19:50;15.90;;;13.57;;
8413;SDS011;4244;48.684;9.028;2023-04-30T05:22:15;13.10;;;11.80;;
8413;SDS011;4244;48.684;9.028;2023-04-30T05:24:41;13.87;;;12.40;;
8413;SDS011;4244;48.684;9.028;2023-04-30T05:27:07;13.97;;;12.47;;
8413;SDS011;4244;48.684;9.028;2023-04-30T05:29:33;12.30;;;10.60;;
8413;SDS011;4244;48.684;9.028;2023-04-30T05:31:59;11.97;;;10.80;;
8413;SDS011;4244;48.684;9.028;2023-04-30T05:34:25;13.67;;;12.20;;
8413;SDS011;4244;48.684;9.028;2023-04-30T05:36:51;13.67;;;12.17;;
8413;SDS011;4244;48.684;9.028;2023-04-30T05:39:17;13.57;;;12.27;;
8413;SDS011;4244;48.684;9.028;2023-04-30T05:41:42;13.53;;;12.27;;
8413;SDS011;4244;48.684;9.028;2023-04-30T05:44:08;13.60;;;12.30;;
8413;SDS011;4244;48.684;9.028;2023-04-30T05:46:34;14.50;;;12.57;;
8413;SDS011;4244;48.684;9.028;2023-04-30T05:49:00;13.33;;;11.93;;
8413;SDS011;4244;48.684;9.028;2023-04-30T05:51:27;14.07;;;12.33;;
8413;SDS011;4244;48.684;9.028;2023-04-30T05:53:52;12.60;;;11.40;;
8413;SDS011;4244;48.684;9.028;2023-04-30T05:56:18;12.87;;;11.53;;
8413;SDS011;4244;48.684;9.028;2023-04-30T05:58:45;13.30;;;11.33;;
8413;SDS011;4244;48.684;9.028;2023-04-30T06:01:11;12.60;;;11.03;;
8413;SDS011;4244;48.684;9.028;2023-04-30T06:03:36;12.70;;;11.40;;
8413;SDS011;4244;48.684;9.028;2023-04-30T06:06:02;13.00;;;11.80;;
8413;SDS011;4244;48.684;9.028;2023-04-30T06:08:28;11.23;;;10.17;;
8413;SDS011;4244;48.684;9.028;2023-04-30T06:10:54;12.33;;;11.10;;
8413;SDS011;4244;48.684;9.028;2023-04-30T06:13:20;13.73;;;11.90;;
8413;SDS011;4244;48.684;9.028;2023-04-30T06:15:46;12.50;;;11.23;;
8413;SDS011;4244;48.684;9.028;2023-04-30T06:18:12;12.20;;;10.80;;
8413;SDS011;4244;48.684;9.028;2023-04-30T06:20:38;13.23;;;11.80;;
8413;SDS011;4244;48.684;9.028;2023-04-30T06:23:04;13.47;;;12.17;;
8413;SDS011;4244;48.684;9.028;2023-04-30T06:25:30;12.40;;;10.53;;
8413;SDS011;4244;48.684;9.028;2023-04-30T06:27:56;15.00;;;12.60;;
8413;SDS011;4244;48.684;9.028;2023-04-30T06:30:21;11.83;;;10.63;;
8413;SDS011;4244;48.684;9.028;2023-04-30T06:32:47;12.50;;;11.40;;
8413;SDS011;4244;48.684;9.028;2023-04-30T06:35:13;12.70;;;11.50;;
8413;SDS011;4244;48.684;9.028;2023-04-30T06:37:38;12.10;;;10.90;;
8413;SDS011;4244;48.684;9.028;2023-04-30T06:40:05;13.77;;;12.47;;
8413;SDS011;4244;48.684;9.028;2023-04-30T06:42:31;13.40;;;12.20;;
8413;SDS011;4244;48.684;9.028;2023-04-30T06:45:01;11.90;;;10.70;;
8413;SDS011;4244;48.684;9.028;2023-04-30T06:47:29;12.40;;;11.20;;
8413;SDS011;4244;48.684;9.028;2023-04-30T06:49:59;13.07;;;11.77;;
8413;SDS011;4244;48.684;9.028;2023-04-30T06:52:25;12.90;;;11.60;;
8413;SDS011;4244;48.684;9.028;2023-04-30T06:54:51;12.10;;;10.90;;
8413;SDS011;4244;48.684;9.028;2023-04-30T06:57:16;12.07;;;10.87;;
8413;SDS011;4244;48.684;9.028;2023-04-30T06:59:42;12.50;;;11.25;;
8413;SDS011;4244;48.684;9.028;2023-04-30T07:02:08;11.73;;;10.63;;
8413;SDS011;4244;48.684;9.028;2023-04-30T07:04:34;12.67;;;11.30;;
8413;SDS011;4244;48.684;9.028;2023-04-30T07:07:01;11.83;;;10.83;;
8413;SDS011;4244;48.684;9.028;2023-04-30T07:09:27;11.67;;;10.47;;
8413;SDS011;4244;48.684;9.028;2023-04-30T07:11:53;11.93;;;10.77;;
8413;SDS011;4244;48.684;9.028;2023-04-30T07:14:20;11.13;;;10.13;;
8413;SDS011;4244;48.684;9.028;2023-04-30T07:16:45;10.63;;;9.63;;
8413;SDS011;4244;48.684;9.028;2023-04-30T07:19:13;12.10;;;10.90;;
8413;SDS011;4244;48.684;9.028;2023-04-30T07:21:39;11.33;;;10.23;;
8413;SDS011;4244;48.684;9.028;2023-04-30T07:24:05;11.00;;;9.90;;
8413;SDS011;4244;48.684;9.028;2023-04-30T07:26:30;11.80;;;10.60;;
8413;SDS011;4244;48.684;9.028;2023-04-30T07:28:56;9.80;;;8.90;;
8413;SDS011;4244;48.684;9.028;2023-04-30T07:31:21;10.87;;;9.80;;
8413;SDS011;4244;48.684;9.028;2023-04-30T07:33:47;10.07;;;9.07;;
8413;SDS011;4244;48.684;9.028;2023-04-30T07:36:14;11.60;;;10.07;;
8413;SDS011;4244;48.684;9.028;2023-04-30T07:38:40;10.03;;;9.10;;
8413;SDS011;4244;48.684;9.028;2023-04-30T07:41:06;10.43;;;9.33;;
8413;SDS011;4244;48.684;9.028;2023-04-30T07:43:33;10.30;;;9.33;;
8413;SDS011;4244;48.684;9.028;2023-04-30T07:46:00;9.37;;;8.47;;
8413;SDS011;4244;48.684;9.028;2023-04-30T07:48:26;9.13;;;8.27;;
8413;SDS011;4244;48.684;9.028;2023-04-30T07:50:52;9.53;;;8.73;;
8413;SDS011;4244;48.684;9.028;2023-04-30T07:53:17;9.37;;;8.57;;
8413;SDS011;4244;48.684;9.028;2023-04-30T07:55:43;13.73;;;9.23;;
8413;SDS011;4244;48.684;9.028;2023-04-30T07:58:08;10.43;;;8.73;;
8413;SDS011;4244;48.684;9.028;2023-04-30T08:00:34;8.90;;;8.10;;
8413;SDS011;4244;48.684;9.028;2023-04-30T08:03:00;7.17;;;6.50;;
8413;SDS011;4244;48.684;9.028;2023-04-30T08:05:26;9.10;;;8.30;;
8413;SDS011;4244;48.684;9.028;2023-04-30T08:07:51;7.83;;;7.13;;
8413;SDS011;4244;48.684;9.028;2023-04-30T08:10:17;9.47;;;8.67;;
8413;SDS011;4244;48.684;9.028;2023-04-30T08:12:43;8.10;;;7.43;;
8413;SDS011;4244;48.684;9.028;2023-04-30T08:15:09;8.20;;;7.50;;
8413;SDS011;4244;48.684;9.028;2023-04-30T08:17:34;9.00;;;8.20;;
8413;SDS011;4244;48.684;9.028;2023-04-30T08:20:02;8.60;;;7.80;;
8413;SDS011;4244;48.684;9.028;2023-04-30T08:22:28;7.73;;;7.13;;
8413;SDS011;4244;48.684;9.028;2023-04-30T08:24:54;8.73;;;8.03;;
8413;SDS011;4244;48.684;9.028;2023-04-30T08:27:20;9.73;;;8.93;;
8413;SDS011;4244;48.684;9.028;2023-04-30T08:29:46;7.47;;;6.73;;
8413;SDS011;4244;48.684;9.028;2023-04-30T08:32:12;8.40;;;7.70;;
8413;SDS011;4244;48.684;9.028;2023-04-30T08:34:37;7.37;;;6.67;;
8413;SDS011;4244;48.684;9.028;2023-04-30T08:37:07;7.73;;;7.03;;
8413;SDS011;4244;48.684;9.028;2023-04-30T08:39:33;6.60;;;5.87;;
8413;SDS011;4244;48.684;9.028;2023-04-30T08:42:00;7.00;;;6.40;;
8413;SDS011;4244;48.684;9.028;2023-04-30T08:44:28;7.57;;;6.90;;
8413;SDS011;4244;48.684;9.028;2023-04-30T08:46:55;7.43;;;6.80;;
8413;SDS011;4244;48.684;9.028;2023-04-30T08:49:22;6.87;;;6.30;;
8413;SDS011;4244;48.684;9.028;2023-04-30T08:51:48;7.90;;;7.20;;
8413;SDS011;4244;48.684;9.028;2023-04-30T08:54:15;8.00;;;7.20;;
8413;SDS011;4244;48.684;9.028;2023-04-30T08:56:41;7.87;;;7.00;;
8413;SDS011;4244;48.684;9.028;2023-04-30T08:59:06;7.00;;;6.37;;
8413;SDS011;4244;48.684;9.028;2023-04-30T09:01:33;9.37;;;7.50;;
8413;SDS011;4244;48.684;9.028;2023-04-30T09:03:59;7.30;;;6.60;;
8413;SDS011;4244;48.684;9.028;2023-04-30T09:06:26;7.33;;;6.73;;
8413;SDS011;4244;48.684;9.028;2023-04-30T09:08:52;6.43;;;5.83;;
8413;SDS011;4244;48.684;9.028;2023-04-30T09:13:59;7.40;;;6.80;;
8413;SDS011;4244;48.684;9.028;2023-04-30T09:16:26;6.70;;;6.10;;
8413;SDS011;4244;48.684;9.028;2023-04-30T09:18:56;6.83;;;6.23;;
8413;SDS011;4244;48.684;9.028;2023-04-30T09:21:56;7.50;;;6.80;;
8413;SDS011;4244;48.684;9.028;2023-04-30T09:24:15;6.43;;;5.93;;
8413;SDS011;4244;48.684;9.028;2023-04-30T09:26:41;5.47;;;5.00;;
8413;SDS011;4244;48.684;9.028;2023-04-30T09:29:07;6.60;;;6.00;;
8413;SDS011;4244;48.684;9.028;2023-04-30T09:31:38;6.87;;;6.17;;
8413;SDS011;4244;48.684;9.028;2023-04-30T09:34:05;6.20;;;5.70;;
8413;SDS011;4244;48.684;9.028;2023-04-30T09:36:31;6.63;;;6.00;;
8413;SDS011;4244;48.684;9.028;2023-04-30T09:39:15;6.97;;;6.30;;
8413;SDS011;4244;48.684;9.028;2023-04-30T09:41:43;6.30;;;5.80;;
8413;SDS011;4244;48.684;9.028;2023-04-30T09:44:30;6.33;;;5.73;;
8413;SDS011;4244;48.684;9.028;2023-04-30T09:46:56;6.70;;;6.00;;
8413;SDS011;4244;48.684;9.028;2023-04-30T09:49:23;6.00;;;5.50;;
8413;SDS011;4244;48.684;9.028;2023-04-30T09:51:54;6.00;;;5.50;;
8413;SDS011;4244;48.684;9.028;2023-04-30T09:54:27;5.00;;;4.60;;
8413;SDS011;4244;48.684;9.028;2023-04-30T09:56:54;5.40;;;5.00;;
8413;SDS011;4244;48.684;9.028;2023-04-30T09:59:22;6.70;;;5.70;;
8413;SDS011;4244;48.684;9.028;2023-04-30T10:01:54;5.23;;;4.73;;
8413;SDS011;4244;48.684;9.028;2023-04-30T10:04:26;5.80;;;4.80;;
8413;SDS011;4244;48.684;9.028;2023-04-30T10:06:57;5.57;;;4.97;;
8413;SDS011;4244;48.684;9.028;2023-04-30T10:09:27;5.67;;;5.07;;
8413;SDS011;4244;48.684;9.028;2023-04-30T10:11:59;5.03;;;4.57;;
8413;SDS011;4244;48.684;9.028;2023-04-30T10:14:25;5.60;;;4.47;;
8413;SDS011;4244;48.684;9.028;2023-04-30T10:16:54;5.00;;;4.53;;
8413;SDS011;4244;48.684;9.028;2023-04-30T10:19:29;5.53;;;5.03;;
8413;SDS011;4244;48.684;9.028;2023-04-30T10:21:56;6.67;;;6.07;;
8413;SDS011;4244;48.684;9.028;2023-04-30T10:24:22;7.37;;;6.77;;
8413;SDS011;4244;48.684;9.028;2023-04-30T10:26:48;6.60;;;5.10;;
8413;SDS011;4244;48.684;9.028;2023-04-30T10:29:15;6.33;;;5.83;;
8413;SDS011;4244;48.684;9.028;2023-04-30T10:31:42;6.60;;;5.70;;
8413;SDS011;4244;48.684;9.028;2023-04-30T10:36:47;7.37;;;6.70;;
8413;SDS011;4244;48.684;9.028;2023-04-30T10:39:21;4.60;;;4.20;;
8413;SDS011;4244;48.684;9.028;2023-04-30T10:41:48;5.53;;;4.93;;
8413;SDS011;4244;48.684;9.028;2023-04-30T10:44:14;5.60;;;4.57;;
8413;SDS011;4244;48.684;9.028;2023-04-30T10:46:42;5.73;;;5.13;;
8413;SDS011;4244;48.684;9.028;2023-04-30T10:49:10;7.87;;;6.80;;
8413;SDS011;4244;48.684;9.028;2023-04-30T10:54:13;4.97;;;4.47;;
8413;SDS011;4244;48.684;9.028;2023-04-30T10:56:42;5.17;;;4.77;;
8413;SDS011;4244;48.684;9.028;2023-04-30T10:59:10;5.50;;;4.87;;
8413;SDS011;4244;48.684;9.028;2023-04-30T11:04:22;5.27;;;4.77;;
8413;SDS011;4244;48.684;9.028;2023-04-30T11:09:16;6.50;;;5.53;;
8413;SDS011;4244;48.684;9.028;2023-04-30T11:11:45;7.97;;;7.37;;
8413;SDS011;4244;48.684;9.028;2023-04-30T11:14:19;13.00;;;11.90;;
8413;SDS011;4244;48.684;9.028;2023-04-30T11:16:47;7.57;;;6.87;;
8413;SDS011;4244;48.684;9.028;2023-04-30T11:19:14;4.80;;;4.40;;
8413;SDS011;4244;48.684;9.028;2023-04-30T11:21:40;5.70;;;5.30;;
8413;SDS011;4244;48.684;9.028;2023-04-30T11:24:06;5.83;;;5.03;;
8413;SDS011;4244;48.684;9.028;2023-04-30T11:27:17;5.60;;;5.10;;
8413;SDS011;4244;48.684;9.028;2023-04-30T11:29:28;5.30;;;4.80;;
8413;SDS011;4244;48.684;9.028;2023-04-30T11:31:55;6.53;;;5.93;;
8413;SDS011;4244;48.684;9.028;2023-04-30T11:34:21;6.40;;;5.53;;
8413;SDS011;4244;48.684;9.028;2023-04-30T11:36:48;5.13;;;4.73;;
8413;SDS011;4244;48.684;9.028;2023-04-30T11:39:13;5.30;;;4.80;;
8413;SDS011;4244;48.684;9.028;2023-04-30T11:41:42;11.10;;;10.00;;
8413;SDS011;4244;48.684;9.028;2023-04-30T11:44:26;40.57;;;36.23;;
8413;SDS011;4244;48.684;9.028;2023-04-30T11:46:52;8.17;;;7.47;;
8413;SDS011;4244;48.684;9.028;2023-04-30T11:49:19;6.63;;;6.13;;
8413;SDS011;4244;48.684;9.028;2023-04-30T11:51:47;8.83;;;8.20;;
8413;SDS011;4244;48.684;9.028;2023-04-30T11:54:14;6.43;;;5.90;;
8413;SDS011;4244;48.684;9.028;2023-04-30T11:56:44;5.50;;;5.10;;
8413;SDS011;4244;48.684;9.028;2023-04-30T11:59:13;4.50;;;3.93;;
8413;SDS011;4244;48.684;9.028;2023-04-30T12:01:40;7.90;;;7.30;;
8413;SDS011;4244;48.684;9.028;2023-04-30T12:04:06;4.40;;;4.00;;
8413;SDS011;4244;48.684;9.028;2023-04-30T12:06:35;4.50;;;4.10;;
8413;SDS011;4244;48.684;9.028;2023-04-30T12:09:02;5.70;;;5.23;;
8413;SDS011;4244;48.684;9.028;2023-04-30T12:11:33;5.50;;;5.10;;
8413;SDS011;4244;48.684;9.028;2023-04-30T12:14:03;6.60;;;6.20;;
8413;SDS011;4244;48.684;9.028;2023-04-30T12:16:47;4.70;;;4.30;;
8413;SDS011;4244;48.684;9.028;2023-04-30T12:19:14;4.87;;;4.47;;
8413;SDS011;4244;48.684;9.028;2023-04-30T12:21:41;4.47;;;4.07;;
8413;SDS011;4244;48.684;9.028;2023-04-30T12:24:11;5.23;;;4.83;;
8413;SDS011;4244;48.684;9.028;2023-04-30T12:26:38;5.33;;;4.93;;
8413;SDS011;4244;48.684;9.028;2023-04-30T12:29:07;7.30;;;6.60;;
8413;SDS011;4244;48.684;9.028;2023-04-30T12:31:35;5.27;;;4.80;;
8413;SDS011;4244;48.684;9.028;2023-04-30T12:34:06;5.00;;;4.60;;
8413;SDS011;4244;48.684;9.028;2023-04-30T12:36:33;5.40;;;4.90;;
8413;SDS011;4244;48.684;9.028;2023-04-30T12:39:13;4.33;;;3.93;;
8413;SDS011;4244;48.684;9.028;2023-04-30T12:41:40;4.20;;;3.90;;
8413;SDS011;4244;48.684;9.028;2023-04-30T12:44:16;4.60;;;4.20;;
8413;SDS011;4244;48.684;9.028;2023-04-30T12:46:47;4.50;;;4.10;;
8413;SDS011;4244;48.684;9.028;2023-04-30T12:49:26;4.90;;;4.43;;
8413;SDS011;4244;48.684;9.028;2023-04-30T12:51:57;4.00;;;3.70;;
8413;SDS011;4244;48.684;9.028;2023-04-30T12:54:33;4.03;;;3.73;;
8413;SDS011;4244;48.684;9.028;2023-04-30T12:57:01;4.93;;;4.53;;
8413;SDS011;4244;48.684;9.028;2023-04-30T12:59:29;4.17;;;3.77;;
8413;SDS011;4244;48.684;9.028;2023-04-30T13:02:22;4.40;;;4.10;;
8413;SDS011;4244;48.684;9.028;2023-04-30T13:04:48;4.57;;;4.27;;
8413;SDS011;4244;48.684;9.028;2023-04-30T13:07:15;4.33;;;3.93;;
8413;SDS011;4244;48.684;9.028;2023-04-30T13:09:40;4.03;;;3.67;;
8413;SDS011;4244;48.684;9.028;2023-04-30T13:12:06;4.07;;;3.30;;
8413;SDS011;4244;48.684;9.028;2023-04-30T13:14:32;4.30;;;3.90;;
8413;SDS011;4244;48.684;9.028;2023-04-30T13:16:59;6.00;;;5.40;;
8413;SDS011;4244;48.684;9.028;2023-04-30T13:19:26;4.60;;;4.07;;
8413;SDS011;4244;48.684;9.028;2023-04-30T13:21:54;4.50;;;4.10;;
8413;SDS011;4244;48.684;9.028;2023-04-30T13:24:20;4.90;;;4.50;;
8413;SDS011;4244;48.684;9.028;2023-04-30T13:26:46;5.00;;;4.60;;
8413;SDS011;4244;48.684;9.028;2023-04-30T13:29:12;4.50;;;4.20;;
8413;SDS011;4244;48.684;9.028;2023-04-30T13:31:37;4.93;;;4.50;;
8413;SDS011;4244;48.684;9.028;2023-04-30T13:34:03;4.40;;;4.00;;
8413;SDS011;4244;48.684;9.028;2023-04-30T13:36:29;4.40;;;3.93;;
8413;SDS011;4244;48.684;9.028;2023-04-30T13:38:54;3.80;;;3.50;;
8413;SDS011;4244;48.684;9.028;2023-04-30T13:41:20;4.13;;;3.83;;
8413;SDS011;4244;48.684;9.028;2023-04-30T13:43:46;4.33;;;3.93;;
8413;SDS011;4244;48.684;9.028;2023-04-30T13:46:12;4.67;;;4.27;;
8413;SDS011;4244;48.684;9.028;2023-04-30T13:48:39;4.90;;;4.50;;
8413;SDS011;4244;48.684;9.028;2023-04-30T13:51:05;4.90;;;4.50;;
8413;SDS011;4244;48.684;9.028;2023-04-30T13:53:31;5.70;;;3.90;;
8413;SDS011;4244;48.684;9.028;2023-04-30T13:55:57;5.20;;;4.80;;
8413;SDS011;4244;48.684;9.028;2023-04-30T13:58:23;4.50;;;4.10;;
8413;SDS011;4244;48.684;9.028;2023-04-30T14:00:49;5.17;;;3.90;;
8413;SDS011;4244;48.684;9.028;2023-04-30T14:03:16;4.73;;;4.13;;
8413;SDS011;4244;48.684;9.028;2023-04-30T14:05:42;4.53;;;4.13;;
8413;SDS011;4244;48.684;9.028;2023-04-30T14:08:08;4.80;;;4.50;;
8413;SDS011;4244;48.684;9.028;2023-04-30T14:10:34;4.17;;;3.87;;
8413;SDS011;4244;48.684;9.028;2023-04-30T14:12:59;4.73;;;4.23;;
8413;SDS011;4244;48.684;9.028;2023-04-30T14:15:25;4.30;;;3.90;;
8413;SDS011;4244;48.684;9.028;2023-04-30T14:17:54;4.57;;;4.07;;
8413;SDS011;4244;48.684;9.028;2023-04-30T14:20:19;4.43;;;4.00;;
8413;SDS011;4244;48.684;9.028;2023-04-30T14:22:45;3.60;;;3.30;;
8413;SDS011;4244;48.684;9.028;2023-04-30T14:25:11;4.00;;;3.70;;
8413;SDS011;4244;48.684;9.028;2023-04-30T14:27:37;4.50;;;4.07;;
8413;SDS011;4244;48.684;9.028;2023-04-30T14:30:03;3.77;;;3.50;;
8413;SDS011;4244;48.684;9.028;2023-04-30T14:32:34;4.20;;;3.90;;
8413;SDS011;4244;48.684;9.028;2023-04-30T14:35:00;3.80;;;3.50;;
8413;SDS011;4244;48.684;9.028;2023-04-30T14:37:26;3.70;;;3.40;;
8413;SDS011;4244;48.684;9.028;2023-04-30T14:39:52;4.40;;;4.10;;
8413;SDS011;4244;48.684;9.028;2023-04-30T14:42:18;4.47;;;4.17;;
8413;SDS011;4244;48.684;9.028;2023-04-30T14:44:43;5.30;;;4.17;;
8413;SDS011;4244;48.684;9.028;2023-04-30T14:47:09;4.20;;;3.80;;
8413;SDS011;4244;48.684;9.028;2023-04-30T14:49:35;4.23;;;3.90;;
8413;SDS011;4244;48.684;9.028;2023-04-30T14:52:01;4.43;;;4.03;;
8413;SDS011;4244;48.684;9.028;2023-04-30T14:54:27;4.50;;;4.10;;
8413;SDS011;4244;48.684;9.028;2023-04-30T14:56:53;4.77;;;4.37;;
8413;SDS011;4244;48.684;9.028;2023-04-30T14:59:18;4.47;;;4.07;;
8413;SDS011;4244;48.684;9.028;2023-04-30T15:01:44;6.17;;;3.70;;
8413;SDS011;4244;48.684;9.028;2023-04-30T15:04:10;3.93;;;3.57;;
8413;SDS011;4244;48.684;9.028;2023-04-30T15:06:36;3.67;;;3.37;;
8413;SDS011;4244;48.684;9.028;2023-04-30T15:09:02;4.70;;;4.20;;
8413;SDS011;4244;48.684;9.028;2023-04-30T15:11:27;4.30;;;4.00;;
8413;SDS011;4244;48.684;9.028;2023-04-30T15:13:53;4.87;;;3.77;;
8413;SDS011;4244;48.684;9.028;2023-04-30T15:16:19;4.20;;;3.70;;
8413;SDS011;4244;48.684;9.028;2023-04-30T15:18:45;4.50;;;4.10;;
8413;SDS011;4244;48.684;9.028;2023-04-30T15:21:11;4.70;;;4.30;;
8413;SDS011;4244;48.684;9.028;2023-04-30T15:23:37;4.77;;;3.90;;
8413;SDS011;4244;48.684;9.028;2023-04-30T15:26:02;4.37;;;3.97;;
8413;SDS011;4244;48.684;9.028;2023-04-30T15:28:28;5.67;;;5.17;;
8413;SDS011;4244;48.684;9.028;2023-04-30T15:30:57;4.60;;;4.20;;
8413;SDS011;4244;48.684;9.028;2023-04-30T15:33:24;4.20;;;3.90;;
8413;SDS011;4244;48.684;9.028;2023-04-30T15:35:52;4.37;;;3.97;;
8413;SDS011;4244;48.684;9.028;2023-04-30T15:38:18;3.67;;;3.37;;
8413;SDS011;4244;48.684;9.028;2023-04-30T15:40:46;3.63;;;3.30;;
8413;SDS011;4244;48.684;9.028;2023-04-30T15:43:12;4.67;;;4.27;;
8413;SDS011;4244;48.684;9.028;2023-04-30T15:45:38;4.60;;;4.10;;
8413;SDS011;4244;48.684;9.028;2023-04-30T15:48:04;4.30;;;3.87;;
8413;SDS011;4244;48.684;9.028;2023-04-30T15:50:30;4.00;;;3.70;;